createdAt,value
2022-11-10T00:02:07.665Z,73.44
2022-11-10T00:07:10.172Z,73.47
2022-11-10T00:12:12.775Z,73.36
2022-11-10T00:17:15.301Z,73.40
2022-11-10T00:22:17.757Z,73.26
2022-11-10T00:27:20.289Z,73.62
2022-11-10T00:38:00.396Z,73.44
2022-11-10T00:43:02.708Z,73.46
2022-11-10T00:48:05.397Z,73.42
2022-11-10T00:53:07.809Z,73.49
2022-11-10T00:58:10.193Z,73.68
2022-11-10T01:03:18.883Z,73.35
2022-11-10T01:08:21.194Z,73.63
2022-11-10T01:13:23.692Z,73.61
2022-11-10T01:18:26.055Z,73.75
2022-11-10T01:23:28.250Z,73.96
2022-11-10T01:28:31.331Z,74.10
2022-11-10T01:33:34.274Z,73.64
2022-11-10T01:38:39.668Z,74.00
2022-11-10T01:43:42.262Z,73.91
2022-11-10T01:48:47.240Z,74.41
2022-11-10T01:54:00.233Z,74.30
2022-11-10T01:59:08.456Z,74.35
2022-11-10T02:04:15.383Z,74.87
2022-11-10T02:09:18.458Z,74.72
2022-11-10T02:14:20.762Z,74.53
2022-11-10T02:19:25.417Z,75.38
2022-11-10T02:24:27.755Z,74.91
2022-11-10T02:29:29.960Z,74.78
2022-11-10T02:34:32.217Z,74.89
2022-11-10T02:39:34.437Z,74.77
2022-11-10T02:44:38.691Z,74.78
2022-11-10T02:49:41.209Z,74.88
2022-11-10T02:54:43.384Z,75.16
2022-11-10T02:59:45.572Z,75.28
2022-11-10T03:04:47.774Z,75.00
2022-11-10T03:09:50.037Z,74.99
2022-11-10T03:14:52.188Z,74.98
2022-11-10T03:19:54.369Z,74.99
2022-11-10T03:24:56.552Z,75.04
2022-11-10T03:29:58.770Z,75.05
2022-11-10T03:35:00.965Z,75.06
2022-11-10T03:40:03.923Z,75.25
2022-11-10T03:45:06.719Z,75.01
2022-11-10T03:50:09.316Z,74.95
2022-11-10T03:55:14.202Z,75.25
2022-11-10T04:00:16.877Z,75.23
2022-11-10T04:05:38.134Z,75.78
2022-11-10T04:10:40.422Z,75.63
2022-11-10T04:21:58.276Z,75.90
2022-11-10T04:27:00.442Z,75.58
2022-11-10T04:32:02.622Z,75.51
2022-11-10T04:37:05.511Z,75.67
2022-11-10T04:42:07.826Z,75.73
2022-11-10T04:47:11.980Z,75.68
2022-11-10T04:52:14.419Z,75.68
2022-11-10T04:57:16.581Z,75.60
2022-11-10T05:02:18.757Z,75.46
2022-11-10T05:07:20.930Z,75.29
2022-11-10T05:12:23.110Z,75.42
2022-11-10T05:17:25.477Z,75.39
2022-11-10T05:22:27.798Z,75.29
2022-11-10T05:27:30.397Z,75.25
2022-11-10T05:32:33.474Z,75.12
2022-11-10T05:37:40.177Z,75.23
2022-11-10T05:42:53.226Z,75.12
2022-11-10T05:47:56.476Z,75.01
2022-11-10T05:52:58.669Z,75.18
2022-11-10T05:58:00.856Z,75.36
2022-11-10T06:03:21.604Z,75.04
2022-11-10T06:08:24.207Z,75.10
2022-11-10T06:13:26.469Z,75.25
2022-11-10T06:18:28.643Z,75.03
2022-11-10T06:23:30.905Z,75.13
2022-11-10T06:28:33.083Z,75.43
2022-11-10T06:33:35.306Z,75.12
2022-11-10T06:38:37.451Z,75.31
2022-11-10T06:43:39.853Z,75.23
2022-11-10T06:48:42.030Z,75.19
2022-11-10T06:53:44.292Z,75.25
2022-11-10T06:58:46.477Z,75.64
2022-11-10T07:04:13.498Z,75.43
2022-11-10T07:09:10.870Z,75.02
2022-11-10T07:14:13.048Z,74.81
2022-11-10T07:19:15.217Z,74.61
2022-11-10T07:24:17.406Z,74.63
2022-11-10T07:29:19.690Z,74.39
2022-11-10T07:34:21.900Z,74.48
2022-11-10T07:39:24.060Z,74.01
2022-11-10T07:44:28.093Z,73.88
2022-11-10T07:49:30.308Z,73.96
2022-11-10T07:54:32.491Z,73.55
2022-11-10T07:59:34.652Z,73.47
2022-11-10T08:04:36.814Z,73.13
2022-11-10T08:09:38.966Z,73.06
2022-11-10T08:14:41.159Z,72.88
2022-11-10T08:19:43.356Z,72.57
2022-11-10T08:24:45.744Z,72.70
2022-11-10T08:29:47.917Z,72.46
2022-11-10T08:34:50.088Z,72.13
2022-11-10T08:39:52.284Z,71.83
2022-11-10T08:44:54.443Z,71.29
2022-11-10T08:49:56.639Z,71.24
2022-11-10T08:54:58.886Z,71.19
2022-11-10T09:00:01.077Z,70.89
2022-11-10T09:05:03.431Z,70.23
2022-11-10T09:10:08.064Z,70.22
2022-11-10T09:15:11.465Z,70.02
2022-11-10T09:20:13.695Z,69.74
2022-11-10T09:25:16.005Z,69.46
2022-11-10T09:30:18.872Z,68.85
2022-11-10T09:35:21.469Z,68.51
2022-11-10T09:40:51.251Z,68.18
2022-11-10T09:45:55.896Z,67.91
2022-11-10T09:51:03.310Z,67.54
2022-11-10T09:56:07.275Z,67.16
2022-11-10T10:01:15.263Z,66.77
2022-11-10T10:06:17.674Z,66.50
2022-11-10T10:23:30.483Z,65.71
2022-11-10T10:28:46.451Z,64.29
2022-11-10T10:33:49.723Z,62.92
2022-11-10T10:39:01.370Z,62.08
2022-11-10T10:44:12.635Z,61.99
2022-11-10T10:49:31.458Z,61.67
2022-11-10T10:54:36.479Z,60.65
2022-11-10T10:59:38.683Z,60.51
2022-11-10T11:04:40.883Z,60.21
2022-11-10T11:09:44.689Z,59.35
2022-11-10T11:14:46.975Z,58.77
2022-11-10T11:19:59.417Z,58.69
2022-11-10T11:25:09.635Z,57.98
2022-11-10T11:30:17.820Z,57.35
2022-11-10T11:35:44.812Z,57.20
2022-11-10T11:41:05.445Z,55.68
2022-11-10T11:46:22.235Z,55.13
2022-11-10T11:51:48.898Z,54.76
2022-11-10T11:56:52.203Z,54.35
2022-11-10T12:02:02.384Z,53.67
2022-11-10T12:07:28.761Z,53.55
2022-11-10T12:12:46.585Z,52.94
2022-11-10T12:18:17.998Z,52.45
2022-11-10T12:23:29.053Z,50.83
2022-11-10T12:28:40.246Z,51.47
2022-11-10T12:33:47.961Z,51.84
2022-11-10T12:39:19.305Z,51.88
2022-11-10T12:44:37.465Z,51.82
2022-11-10T12:50:01.368Z,51.98
2022-11-10T12:55:04.600Z,52.27
2022-11-10T13:00:27.766Z,52.07
2022-11-10T13:05:42.424Z,51.20
2022-11-10T13:11:01.722Z,51.16
2022-11-10T13:16:04.047Z,50.64
2022-11-10T13:21:06.325Z,50.59
2022-11-10T13:26:32.949Z,50.01
2022-11-10T13:31:40.627Z,49.69
2022-11-10T13:36:45.422Z,49.74
2022-11-10T13:41:57.503Z,48.76
2022-11-10T13:47:08.627Z,48.71
2022-11-10T13:52:20.768Z,48.05
2022-11-10T13:57:37.850Z,47.97
2022-11-10T14:02:47.623Z,47.36
2022-11-10T14:07:50.586Z,46.59
2022-11-10T14:12:58.679Z,46.60
2022-11-10T14:18:01.284Z,46.01
2022-11-10T14:23:06.151Z,45.34
2022-11-10T14:28:27.461Z,45.42
2022-11-10T14:33:29.777Z,45.03
2022-11-10T14:38:36.190Z,44.50
2022-11-10T14:43:39.685Z,44.98
2022-11-10T14:48:42.081Z,45.73
2022-11-10T14:53:53.432Z,46.29
2022-11-10T14:58:59.515Z,47.01
2022-11-10T15:04:04.416Z,48.84
2022-11-10T15:09:22.572Z,51.04
2022-11-10T15:14:40.975Z,53.30
2022-11-10T15:19:45.888Z,54.82
2022-11-10T15:24:50.691Z,55.93
2022-11-10T15:29:54.663Z,57.16
2022-11-10T15:35:09.879Z,57.25
2022-11-10T15:40:33.702Z,57.96
2022-11-10T15:45:36.459Z,58.53
2022-11-10T15:50:38.920Z,59.17
2022-11-10T15:55:42.603Z,59.43
2022-11-10T16:00:44.996Z,59.90
2022-11-10T16:05:48.958Z,60.20
2022-11-10T16:10:54.626Z,60.80
2022-11-10T16:15:58.143Z,61.50
2022-11-10T16:21:00.381Z,61.43
2022-11-10T16:26:05.397Z,61.92
2022-11-10T16:31:11.787Z,62.31
2022-11-10T16:36:16.905Z,62.59
2022-11-10T16:41:19.277Z,63.04
2022-11-10T16:46:28.788Z,63.45
2022-11-10T16:51:51.208Z,63.41
2022-11-10T16:56:53.424Z,63.86
2022-11-10T17:01:55.812Z,64.08
2022-11-10T17:06:58.081Z,64.27
2022-11-10T17:12:00.297Z,64.63
2022-11-10T17:17:03.136Z,65.24
2022-11-10T17:22:05.628Z,65.15
2022-11-10T17:27:09.007Z,65.28
2022-11-10T17:32:11.185Z,65.76
2022-11-10T17:37:14.454Z,65.78
2022-11-10T17:42:16.787Z,65.88
2022-11-10T17:47:19.276Z,65.98
2022-11-10T17:52:21.833Z,65.93
2022-11-10T17:57:24.033Z,65.93
2022-11-10T18:02:26.243Z,66.11
2022-11-10T18:07:38.606Z,66.45
2022-11-10T18:12:41.663Z,67.48
2022-11-10T18:17:44.345Z,67.37
2022-11-10T18:22:46.557Z,67.85
2022-11-10T18:27:49.093Z,67.69
2022-11-10T18:32:51.326Z,67.77
2022-11-10T18:37:53.564Z,67.45
2022-11-10T18:43:05.969Z,67.83
2022-11-10T18:48:09.600Z,68.15
2022-11-10T18:53:12.232Z,68.12
2022-11-10T18:58:14.408Z,68.46
2022-11-10T19:03:16.711Z,68.58
2022-11-10T19:08:18.993Z,68.56
2022-11-10T19:13:22.167Z,69.10
2022-11-10T19:18:24.597Z,68.81
2022-11-10T19:23:27.049Z,69.17
2022-11-10T19:28:30.183Z,69.19
2022-11-10T19:33:33.898Z,69.54
2022-11-10T19:38:37.011Z,69.26
2022-11-10T19:43:42.475Z,69.36
2022-11-10T19:48:48.774Z,69.36
2022-11-10T19:53:58.258Z,69.39
2022-11-10T19:59:00.629Z,69.80
2022-11-10T20:04:03.489Z,69.62
2022-11-10T20:09:05.801Z,69.47
2022-11-10T20:14:08.207Z,70.03
2022-11-10T20:19:10.395Z,69.81
2022-11-10T20:24:13.243Z,70.28
2022-11-10T20:29:15.742Z,70.23
2022-11-10T20:34:18.089Z,70.24
2022-11-10T20:39:20.282Z,70.44
2022-11-10T20:44:22.532Z,70.31
2022-11-10T20:49:24.968Z,70.54
2022-11-10T20:54:27.827Z,70.35
2022-11-10T20:59:30.207Z,70.86
2022-11-10T21:04:32.412Z,70.60
2022-11-10T21:09:34.636Z,70.43
2022-11-10T21:14:36.903Z,70.50
2022-11-10T21:19:39.289Z,70.57
2022-11-10T21:24:41.502Z,70.75
2022-11-10T21:29:43.748Z,70.72
2022-11-10T21:34:47.618Z,70.89
2022-11-10T21:39:50.401Z,71.14
2022-11-10T21:44:52.599Z,71.58
2022-11-10T21:49:54.812Z,71.61
2022-11-10T21:54:57.133Z,71.46
2022-11-10T21:59:59.482Z,71.46
2022-11-10T22:05:01.665Z,71.75
2022-11-10T22:10:22.657Z,72.26
2022-11-10T22:15:43.473Z,72.24
2022-11-10T22:20:46.027Z,72.27
2022-11-10T22:25:48.168Z,72.40
2022-11-10T22:30:51.784Z,72.42
2022-11-10T22:35:58.459Z,72.29
2022-11-10T22:41:19.246Z,72.33
2022-11-10T22:46:21.456Z,72.36
2022-11-10T22:51:24.592Z,72.75
2022-11-10T22:56:27.356Z,73.04
2022-11-10T23:01:30.311Z,72.74
2022-11-10T23:06:33.342Z,72.74
2022-11-10T23:11:35.868Z,72.53
2022-11-10T23:16:38.074Z,72.15
2022-11-10T23:21:40.348Z,72.47
2022-11-10T23:26:42.570Z,72.59
2022-11-10T23:31:44.889Z,72.88
2022-11-10T23:36:47.239Z,72.71
2022-11-10T23:41:49.444Z,72.31
2022-11-10T23:46:51.633Z,72.47
2022-11-10T23:51:53.946Z,72.70
2022-11-10T23:56:56.412Z,73.65
